Wentworth, New Hampshire
Current Conditions -  °F | °C
As of 3:35 PM on Friday 28 Nov 2014 (Local Time) from K1P1 Reporting Station
Broken Clouds Broken Clouds  
Wind Chill: 23°   Ceiling: 5000
Heat Index: 28°   Visibility: 10mi
Dew Point: 19°   Wind: 5mph
Humidity: 66%   Direction: 300°WNW
Pressure: 30.05"   Gusts: NA
Location:  43.87°N, 71.91°W
Report Text: K1P1 282035Z AUTO 30004KT 10SM SCT040 BKN050 M02/M07 A3005 RMK AO2 T10201075
Loading
Personal Weather Stations






























Interactive Weather Map New forecast layout! Learn more

10-Day Weather Forecast

Advertisements
Track Severe Weather on mobile